Charlestown, Rhode Island
Current Conditions -  °F | °C
As of 5:53 PM on Saturday 22 Nov 2014 (Local Time) from KWST Reporting Station
Overcast Overcast  
Wind Chill: 34°   Ceiling: 6000
Heat Index: 42°   Visibility: 10mi
Dew Point: 27°   Wind: 17mph
Humidity: 55%   Direction: 240°WSW
Pressure: 30.22"   Gusts: 26mph
Location:  41.38°N, 71.64°W
Report Text: KWST 222253Z AUTO 24015G23KT 10SM BKN060 BKN080 OVC100 06/M03 A3022 RMK AO2 SLP233 T00561028
Loading
Personal Weather Stations






























Interactive Weather Map New forecast layout! Learn more

10-Day Weather Forecast

Advertisements
Track Severe Weather on mobile